sensor_id;sensor_type;location;lat;lon;timestamp;temperature;humidity
34989;DHT22;21192;40.182;44.516;2023-04-03T00:02:18;11.40;76.70
34989;DHT22;21192;40.182;44.516;2023-04-03T00:04:44;11.30;76.60
34989;DHT22;21192;40.182;44.516;2023-04-03T00:07:11;11.40;76.60
34989;DHT22;21192;40.182;44.516;2023-04-03T00:09:37;11.40;76.70
34989;DHT22;21192;40.182;44.516;2023-04-03T00:12:03;11.30;76.90
34989;DHT22;21192;40.182;44.516;2023-04-03T00:14:29;11.30;77.60
34989;DHT22;21192;40.182;44.516;2023-04-03T00:16:55;11.20;77.90
34989;DHT22;21192;40.182;44.516;2023-04-03T00:19:21;11.20;78.20
34989;DHT22;21192;40.182;44.516;2023-04-03T00:21:47;11.20;78.40
34989;DHT22;21192;40.182;44.516;2023-04-03T00:24:12;11.20;78.60
34989;DHT22;21192;40.182;44.516;2023-04-03T00:26:39;11.20;78.80
34989;DHT22;21192;40.182;44.516;2023-04-03T00:29:05;11.20;79.10
34989;DHT22;21192;40.182;44.516;2023-04-03T00:31:31;11.20;79.60
34989;DHT22;21192;40.182;44.516;2023-04-03T00:33:57;11.20;80.00
34989;DHT22;21192;40.182;44.516;2023-04-03T00:36:23;11.10;80.30
34989;DHT22;21192;40.182;44.516;2023-04-03T00:38:49;11.00;81.10
34989;DHT22;21192;40.182;44.516;2023-04-03T00:41:15;11.00;81.50
34989;DHT22;21192;40.182;44.516;2023-04-03T00:43:41;11.00;81.70
34989;DHT22;21192;40.182;44.516;2023-04-03T00:46:07;11.00;81.50
34989;DHT22;21192;40.182;44.516;2023-04-03T00:48:39;11.10;81.30
34989;DHT22;21192;40.182;44.516;2023-04-03T00:51:08;11.20;81.90
34989;DHT22;21192;40.182;44.516;2023-04-03T00:53:56;11.20;80.90
34989;DHT22;21192;40.182;44.516;2023-04-03T00:56:25;11.20;80.80
34989;DHT22;21192;40.182;44.516;2023-04-03T00:58:55;11.30;80.70
34989;DHT22;21192;40.182;44.516;2023-04-03T01:01:24;11.30;80.70
34989;DHT22;21192;40.182;44.516;2023-04-03T01:03:50;11.30;80.70
34989;DHT22;21192;40.182;44.516;2023-04-03T01:06:21;11.30;80.80
34989;DHT22;21192;40.182;44.516;2023-04-03T01:08:49;11.20;81.00
34989;DHT22;21192;40.182;44.516;2023-04-03T01:11:16;11.20;81.10
34989;DHT22;21192;40.182;44.516;2023-04-03T01:13:42;11.10;81.10
34989;DHT22;21192;40.182;44.516;2023-04-03T01:16:08;11.20;81.30
34989;DHT22;21192;40.182;44.516;2023-04-03T01:18:37;11.10;81.30
34989;DHT22;21192;40.182;44.516;2023-04-03T01:24:05;10.90;82.20
34989;DHT22;21192;40.182;44.516;2023-04-03T01:26:34;10.90;82.30
34989;DHT22;21192;40.182;44.516;2023-04-03T01:29:01;10.80;82.20
34989;DHT22;21192;40.182;44.516;2023-04-03T01:31:31;10.80;82.30
34989;DHT22;21192;40.182;44.516;2023-04-03T01:33:57;10.90;82.60
34989;DHT22;21192;40.182;44.516;2023-04-03T01:36:27;10.80;83.20
34989;DHT22;21192;40.182;44.516;2023-04-03T01:38:55;10.80;83.70
34989;DHT22;21192;40.182;44.516;2023-04-03T01:41:22;10.70;84.00
34989;DHT22;21192;40.182;44.516;2023-04-03T01:43:48;10.70;84.30
34989;DHT22;21192;40.182;44.516;2023-04-03T01:46:16;10.60;84.60
34989;DHT22;21192;40.182;44.516;2023-04-03T01:48:42;10.60;84.80
34989;DHT22;21192;40.182;44.516;2023-04-03T01:51:08;10.60;84.90
34989;DHT22;21192;40.182;44.516;2023-04-03T01:53:33;10.60;84.90
34989;DHT22;21192;40.182;44.516;2023-04-03T01:55:59;10.60;85.00
34989;DHT22;21192;40.182;44.516;2023-04-03T01:58:25;10.60;85.20
34989;DHT22;21192;40.182;44.516;2023-04-03T02:00:51;10.60;85.30
34989;DHT22;21192;40.182;44.516;2023-04-03T02:03:17;10.60;85.50
34989;DHT22;21192;40.182;44.516;2023-04-03T02:05:44;10.50;85.60
34989;DHT22;21192;40.182;44.516;2023-04-03T02:08:12;10.60;85.80
34989;DHT22;21192;40.182;44.516;2023-04-03T02:10:39;10.50;85.80
34989;DHT22;21192;40.182;44.516;2023-04-03T02:13:05;10.60;85.70
34989;DHT22;21192;40.182;44.516;2023-04-03T02:15:31;10.70;85.40
34989;DHT22;21192;40.182;44.516;2023-04-03T02:17:57;10.80;85.10
34989;DHT22;21192;40.182;44.516;2023-04-03T02:20:22;10.90;84.80
34989;DHT22;21192;40.182;44.516;2023-04-03T02:22:48;10.90;84.50
34989;DHT22;21192;40.182;44.516;2023-04-03T02:25:14;10.90;84.50
34989;DHT22;21192;40.182;44.516;2023-04-03T02:27:40;10.90;84.50
34989;DHT22;21192;40.182;44.516;2023-04-03T02:30:07;10.90;84.60
34989;DHT22;21192;40.182;44.516;2023-04-03T02:32:34;10.80;84.70
34989;DHT22;21192;40.182;44.516;2023-04-03T02:35:00;10.80;85.10
34989;DHT22;21192;40.182;44.516;2023-04-03T02:37:26;10.80;85.20
34989;DHT22;21192;40.182;44.516;2023-04-03T02:39:52;10.80;85.40
34989;DHT22;21192;40.182;44.516;2023-04-03T02:42:18;10.80;85.50
34989;DHT22;21192;40.182;44.516;2023-04-03T02:44:43;10.80;85.60
34989;DHT22;21192;40.182;44.516;2023-04-03T02:47:10;10.90;85.60
34989;DHT22;21192;40.182;44.516;2023-04-03T02:49:35;11.00;85.20
34989;DHT22;21192;40.182;44.516;2023-04-03T02:52:01;11.10;85.00
34989;DHT22;21192;40.182;44.516;2023-04-03T02:54:27;11.10;84.90
34989;DHT22;21192;40.182;44.516;2023-04-03T02:56:56;11.10;84.70
34989;DHT22;21192;40.182;44.516;2023-04-03T02:59:22;11.20;84.60
34989;DHT22;21192;40.182;44.516;2023-04-03T03:01:48;11.30;84.40
34989;DHT22;21192;40.182;44.516;2023-04-03T03:04:14;11.40;84.20
34989;DHT22;21192;40.182;44.516;2023-04-03T03:06:40;11.40;84.30
34989;DHT22;21192;40.182;44.516;2023-04-03T03:09:06;11.40;84.90
34989;DHT22;21192;40.182;44.516;2023-04-03T03:11:32;11.50;84.70
34989;DHT22;21192;40.182;44.516;2023-04-03T03:13:58;11.60;84.50
34989;DHT22;21192;40.182;44.516;2023-04-03T03:16:24;12.20;83.90
34989;DHT22;21192;40.182;44.516;2023-04-03T03:18:50;13.50;82.10
34989;DHT22;21192;40.182;44.516;2023-04-03T03:21:15;14.90;78.90
34989;DHT22;21192;40.182;44.516;2023-04-03T03:23:41;16.10;74.80
34989;DHT22;21192;40.182;44.516;2023-04-03T03:26:10;16.00;71.90
34989;DHT22;21192;40.182;44.516;2023-04-03T03:28:37;16.60;70.00
34989;DHT22;21192;40.182;44.516;2023-04-03T03:31:04;18.00;67.60
34989;DHT22;21192;40.182;44.516;2023-04-03T03:33:30;19.20;64.10
34989;DHT22;21192;40.182;44.516;2023-04-03T03:35:56;20.60;60.90
34989;DHT22;21192;40.182;44.516;2023-04-03T03:38:23;19.60;58.70
34989;DHT22;21192;40.182;44.516;2023-04-03T03:40:49;18.80;58.60
34989;DHT22;21192;40.182;44.516;2023-04-03T03:43:16;18.50;59.30
34989;DHT22;21192;40.182;44.516;2023-04-03T03:45:42;18.10;59.60
34989;DHT22;21192;40.182;44.516;2023-04-03T03:48:08;17.50;60.00
34989;DHT22;21192;40.182;44.516;2023-04-03T03:50:34;17.30;60.30
34989;DHT22;21192;40.182;44.516;2023-04-03T03:52:59;17.20;60.70
34989;DHT22;21192;40.182;44.516;2023-04-03T03:55:25;16.70;61.40
34989;DHT22;21192;40.182;44.516;2023-04-03T03:57:51;17.80;62.10
34989;DHT22;21192;40.182;44.516;2023-04-03T04:00:17;20.00;60.20
34989;DHT22;21192;40.182;44.516;2023-04-03T04:02:43;22.20;56.50
34989;DHT22;21192;40.182;44.516;2023-04-03T04:05:10;24.20;52.60
34989;DHT22;21192;40.182;44.516;2023-04-03T04:07:36;26.10;49.10
34989;DHT22;21192;40.182;44.516;2023-04-03T04:10:02;27.40;45.90
34989;DHT22;21192;40.182;44.516;2023-04-03T04:12:28;28.50;43.40
34989;DHT22;21192;40.182;44.516;2023-04-03T04:14:54;29.50;41.10
34989;DHT22;21192;40.182;44.516;2023-04-03T04:17:20;30.40;39.30
34989;DHT22;21192;40.182;44.516;2023-04-03T04:19:46;31.40;37.60
34989;DHT22;21192;40.182;44.516;2023-04-03T04:22:12;32.10;36.30
34989;DHT22;21192;40.182;44.516;2023-04-03T04:24:38;33.00;35.00
34989;DHT22;21192;40.182;44.516;2023-04-03T04:27:04;33.70;33.60
34989;DHT22;21192;40.182;44.516;2023-04-03T04:29:30;34.20;32.60
34989;DHT22;21192;40.182;44.516;2023-04-03T04:32:01;34.40;32.00
34989;DHT22;21192;40.182;44.516;2023-04-03T04:34:27;34.70;31.40
34989;DHT22;21192;40.182;44.516;2023-04-03T04:36:53;34.90;30.70
34989;DHT22;21192;40.182;44.516;2023-04-03T04:39:19;34.30;30.30
34989;DHT22;21192;40.182;44.516;2023-04-03T04:41:44;33.40;30.60
34989;DHT22;21192;40.182;44.516;2023-04-03T04:44:10;33.40;31.10
34989;DHT22;21192;40.182;44.516;2023-04-03T04:46:36;33.90;31.00
34989;DHT22;21192;40.182;44.516;2023-04-03T04:49:02;34.70;30.30
34989;DHT22;21192;40.182;44.516;2023-04-03T04:51:28;34.60;29.90
34989;DHT22;21192;40.182;44.516;2023-04-03T04:53:53;35.10;30.00
34989;DHT22;21192;40.182;44.516;2023-04-03T04:56:19;36.30;29.40
34989;DHT22;21192;40.182;44.516;2023-04-03T04:58:46;37.10;28.80
34989;DHT22;21192;40.182;44.516;2023-04-03T05:01:12;37.50;28.30
34989;DHT22;21192;40.182;44.516;2023-04-03T05:03:37;37.50;28.00
34989;DHT22;21192;40.182;44.516;2023-04-03T05:06:03;37.50;27.80
34989;DHT22;21192;40.182;44.516;2023-04-03T05:08:30;37.70;27.70
34989;DHT22;21192;40.182;44.516;2023-04-03T05:10:56;37.80;27.60
34989;DHT22;21192;40.182;44.516;2023-04-03T05:13:22;37.90;27.40
34989;DHT22;21192;40.182;44.516;2023-04-03T05:15:48;38.00;27.30
34989;DHT22;21192;40.182;44.516;2023-04-03T05:18:13;38.50;27.10
34989;DHT22;21192;40.182;44.516;2023-04-03T05:20:40;39.00;26.90
34989;DHT22;21192;40.182;44.516;2023-04-03T05:23:06;39.50;26.60
34989;DHT22;21192;40.182;44.516;2023-04-03T05:25:32;39.50;26.30
34989;DHT22;21192;40.182;44.516;2023-04-03T05:27:58;39.70;26.30
34989;DHT22;21192;40.182;44.516;2023-04-03T05:30:24;40.10;26.10
34989;DHT22;21192;40.182;44.516;2023-04-03T05:32:50;40.40;25.90
34989;DHT22;21192;40.182;44.516;2023-04-03T05:35:15;40.50;25.80
34989;DHT22;21192;40.182;44.516;2023-04-03T05:37:41;39.70;25.80
34989;DHT22;21192;40.182;44.516;2023-04-03T05:40:08;39.60;26.10
34989;DHT22;21192;40.182;44.516;2023-04-03T05:42:34;39.20;26.10
34989;DHT22;21192;40.182;44.516;2023-04-03T05:45:00;38.00;26.50
34989;DHT22;21192;40.182;44.516;2023-04-03T05:47:26;36.80;27.10
34989;DHT22;21192;40.182;44.516;2023-04-03T05:49:51;35.60;27.80
34989;DHT22;21192;40.182;44.516;2023-04-03T05:52:28;33.80;28.70
34989;DHT22;21192;40.182;44.516;2023-04-03T05:54:55;32.10;30.40
34989;DHT22;21192;40.182;44.516;2023-04-03T05:57:21;30.70;31.60
34989;DHT22;21192;40.182;44.516;2023-04-03T05:59:47;29.20;33.00
34989;DHT22;21192;40.182;44.516;2023-04-03T06:02:16;27.40;35.00
34989;DHT22;21192;40.182;44.516;2023-04-03T06:04:43;26.40;36.50
34989;DHT22;21192;40.182;44.516;2023-04-03T06:07:13;26.30;37.20
34989;DHT22;21192;40.182;44.516;2023-04-03T06:09:41;26.10;38.00
34989;DHT22;21192;40.182;44.516;2023-04-03T06:12:07;26.00;37.70
34989;DHT22;21192;40.182;44.516;2023-04-03T06:14:33;25.80;38.60
34989;DHT22;21192;40.182;44.516;2023-04-03T06:16:59;25.70;38.30
34989;DHT22;21192;40.182;44.516;2023-04-03T06:19:25;25.30;38.50
34989;DHT22;21192;40.182;44.516;2023-04-03T06:21:51;25.00;38.90
34989;DHT22;21192;40.182;44.516;2023-04-03T06:24:18;24.60;40.40
34989;DHT22;21192;40.182;44.516;2023-04-03T06:26:45;24.20;40.70
34989;DHT22;21192;40.182;44.516;2023-04-03T06:29:11;23.70;41.00
34989;DHT22;21192;40.182;44.516;2023-04-03T06:31:37;23.50;41.00
34989;DHT22;21192;40.182;44.516;2023-04-03T06:34:03;23.50;41.20
34989;DHT22;21192;40.182;44.516;2023-04-03T06:36:29;23.30;41.50
34989;DHT22;21192;40.182;44.516;2023-04-03T06:38:55;23.00;41.40
34989;DHT22;21192;40.182;44.516;2023-04-03T06:41:21;22.60;41.50
34989;DHT22;21192;40.182;44.516;2023-04-03T06:43:47;22.40;42.00
34989;DHT22;21192;40.182;44.516;2023-04-03T06:46:19;22.00;42.40
34989;DHT22;21192;40.182;44.516;2023-04-03T06:48:45;21.80;42.80
34989;DHT22;21192;40.182;44.516;2023-04-03T06:53:43;21.40;43.20
34989;DHT22;21192;40.182;44.516;2023-04-03T06:56:08;21.20;43.70
34989;DHT22;21192;40.182;44.516;2023-04-03T06:58:35;21.00;43.90
34989;DHT22;21192;40.182;44.516;2023-04-03T07:01:01;20.80;44.30
34989;DHT22;21192;40.182;44.516;2023-04-03T07:03:27;20.80;44.50
34989;DHT22;21192;40.182;44.516;2023-04-03T07:05:53;20.90;44.90
34989;DHT22;21192;40.182;44.516;2023-04-03T07:08:18;20.80;44.90
34989;DHT22;21192;40.182;44.516;2023-04-03T07:10:44;20.90;45.10
34989;DHT22;21192;40.182;44.516;2023-04-03T07:13:10;20.90;45.40
34989;DHT22;21192;40.182;44.516;2023-04-03T07:15:36;20.90;45.70
34989;DHT22;21192;40.182;44.516;2023-04-03T07:18:02;20.90;46.10
34989;DHT22;21192;40.182;44.516;2023-04-03T07:20:28;20.70;46.20
34989;DHT22;21192;40.182;44.516;2023-04-03T07:22:54;20.50;46.40
34989;DHT22;21192;40.182;44.516;2023-04-03T07:25:20;20.20;46.90
34989;DHT22;21192;40.182;44.516;2023-04-03T07:27:45;20.10;47.40
34989;DHT22;21192;40.182;44.516;2023-04-03T07:30:12;20.10;47.70
34989;DHT22;21192;40.182;44.516;2023-04-03T07:32:39;20.20;47.50
34989;DHT22;21192;40.182;44.516;2023-04-03T07:35:06;20.30;47.50
34989;DHT22;21192;40.182;44.516;2023-04-03T07:37:31;20.30;47.40
34989;DHT22;21192;40.182;44.516;2023-04-03T07:39:58;20.20;47.30
34989;DHT22;21192;40.182;44.516;2023-04-03T07:42:25;20.10;47.40
34989;DHT22;21192;40.182;44.516;2023-04-03T07:44:53;20.20;47.50
34989;DHT22;21192;40.182;44.516;2023-04-03T07:47:19;20.20;47.40
34989;DHT22;21192;40.182;44.516;2023-04-03T07:49:46;20.20;47.20
34989;DHT22;21192;40.182;44.516;2023-04-03T07:52:12;20.10;47.40
34989;DHT22;21192;40.182;44.516;2023-04-03T07:54:40;20.10;47.60
34989;DHT22;21192;40.182;44.516;2023-04-03T07:57:06;20.00;47.50
34989;DHT22;21192;40.182;44.516;2023-04-03T07:59:32;20.10;47.70
34989;DHT22;21192;40.182;44.516;2023-04-03T08:01:58;20.10;47.80
34989;DHT22;21192;40.182;44.516;2023-04-03T08:04:24;20.10;47.90
34989;DHT22;21192;40.182;44.516;2023-04-03T08:06:50;20.00;48.10
34989;DHT22;21192;40.182;44.516;2023-04-03T08:09:16;19.90;48.20
34989;DHT22;21192;40.182;44.516;2023-04-03T08:11:43;19.90;48.30
34989;DHT22;21192;40.182;44.516;2023-04-03T08:14:09;19.90;48.30
34989;DHT22;21192;40.182;44.516;2023-04-03T08:16:41;20.00;48.40
34989;DHT22;21192;40.182;44.516;2023-04-03T08:19:07;19.90;48.50
34989;DHT22;21192;40.182;44.516;2023-04-03T08:21:33;19.90;48.70
34989;DHT22;21192;40.182;44.516;2023-04-03T08:23:59;20.00;49.00
34989;DHT22;21192;40.182;44.516;2023-04-03T08:26:24;20.00;48.90
34989;DHT22;21192;40.182;44.516;2023-04-03T08:28:52;19.80;48.90
34989;DHT22;21192;40.182;44.516;2023-04-03T08:31:19;19.70;49.00
34989;DHT22;21192;40.182;44.516;2023-04-03T08:33:46;19.60;49.30
34989;DHT22;21192;40.182;44.516;2023-04-03T08:36:28;19.60;49.40
34989;DHT22;21192;40.182;44.516;2023-04-03T08:38:56;19.70;49.60
34989;DHT22;21192;40.182;44.516;2023-04-03T08:44:04;20.00;49.30
34989;DHT22;21192;40.182;44.516;2023-04-03T08:49:28;20.00;49.70
34989;DHT22;21192;40.182;44.516;2023-04-03T08:51:56;19.80;49.20
34989;DHT22;21192;40.182;44.516;2023-04-03T08:57:20;19.70;49.70
34989;DHT22;21192;40.182;44.516;2023-04-03T08:59:48;19.80;49.80
34989;DHT22;21192;40.182;44.516;2023-04-03T09:12:04;20.50;48.30
34989;DHT22;21192;40.182;44.516;2023-04-03T09:15:02;20.30;48.30
34989;DHT22;21192;40.182;44.516;2023-04-03T09:23:43;20.80;48.40
34989;DHT22;21192;40.182;44.516;2023-04-03T09:26:13;20.80;48.20
34989;DHT22;21192;40.182;44.516;2023-04-03T09:28:40;20.90;48.00
34989;DHT22;21192;40.182;44.516;2023-04-03T09:31:29;21.00;47.70
34989;DHT22;21192;40.182;44.516;2023-04-03T09:33:59;21.00;47.30
34989;DHT22;21192;40.182;44.516;2023-04-03T09:36:43;21.00;47.20
34989;DHT22;21192;40.182;44.516;2023-04-03T09:39:18;21.00;47.30
34989;DHT22;21192;40.182;44.516;2023-04-03T09:42:05;21.10;47.30
34989;DHT22;21192;40.182;44.516;2023-04-03T09:44:37;21.20;47.20
34989;DHT22;21192;40.182;44.516;2023-04-03T09:47:26;21.20;46.80
34989;DHT22;21192;40.182;44.516;2023-04-03T09:50:21;21.20;46.50
34989;DHT22;21192;40.182;44.516;2023-04-03T09:52:51;21.30;46.50
34989;DHT22;21192;40.182;44.516;2023-04-03T09:55:25;21.30;47.20
34989;DHT22;21192;40.182;44.516;2023-04-03T09:57:59;21.40;46.40
34989;DHT22;21192;40.182;44.516;2023-04-03T10:00:32;21.40;46.30
34989;DHT22;21192;40.182;44.516;2023-04-03T10:02:59;21.30;46.50
34989;DHT22;21192;40.182;44.516;2023-04-03T10:05:39;21.30;46.60
34989;DHT22;21192;40.182;44.516;2023-04-03T10:10:48;21.30;47.30
34989;DHT22;21192;40.182;44.516;2023-04-03T10:13:30;21.10;47.90
34989;DHT22;21192;40.182;44.516;2023-04-03T10:16:17;20.90;48.30
34989;DHT22;21192;40.182;44.516;2023-04-03T10:18:53;20.70;48.70
34989;DHT22;21192;40.182;44.516;2023-04-03T10:35:53;20.90;48.70
34989;DHT22;21192;40.182;44.516;2023-04-03T10:41:16;20.80;48.20
34989;DHT22;21192;40.182;44.516;2023-04-03T10:46:38;20.70;48.30
34989;DHT22;21192;40.182;44.516;2023-04-03T10:54:39;20.80;48.00
34989;DHT22;21192;40.182;44.516;2023-04-03T10:57:08;20.60;47.70
34989;DHT22;21192;40.182;44.516;2023-04-03T10:59:51;20.70;47.70
34989;DHT22;21192;40.182;44.516;2023-04-03T11:05:47;20.80;46.90
34989;DHT22;21192;40.182;44.516;2023-04-03T11:08:44;20.80;46.30
34989;DHT22;21192;40.182;44.516;2023-04-03T11:11:34;20.80;46.10
34989;DHT22;21192;40.182;44.516;2023-04-03T11:14:15;20.80;46.00
34989;DHT22;21192;40.182;44.516;2023-04-03T11:16:47;20.90;46.00
34989;DHT22;21192;40.182;44.516;2023-04-03T11:19:23;20.90;46.10
34989;DHT22;21192;40.182;44.516;2023-04-03T11:22:11;20.90;46.10
34989;DHT22;21192;40.182;44.516;2023-04-03T11:24:43;20.90;46.30
34989;DHT22;21192;40.182;44.516;2023-04-03T11:27:17;20.90;46.10
34989;DHT22;21192;40.182;44.516;2023-04-03T11:29:48;20.90;46.00
34989;DHT22;21192;40.182;44.516;2023-04-03T11:34:50;20.80;45.90
34989;DHT22;21192;40.182;44.516;2023-04-03T11:37:44;20.70;46.20
34989;DHT22;21192;40.182;44.516;2023-04-03T11:40:33;20.60;46.80
34989;DHT22;21192;40.182;44.516;2023-04-03T11:45:35;20.60;47.30
34989;DHT22;21192;40.182;44.516;2023-04-03T11:51:01;20.40;47.70
34989;DHT22;21192;40.182;44.516;2023-04-03T11:53:38;20.40;47.80
34989;DHT22;21192;40.182;44.516;2023-04-03T12:04:11;20.40;47.80
34989;DHT22;21192;40.182;44.516;2023-04-03T12:11:57;20.30;48.50
34989;DHT22;21192;40.182;44.516;2023-04-03T12:14:25;20.20;49.50
34989;DHT22;21192;40.182;44.516;2023-04-03T12:16:54;19.80;50.70
34989;DHT22;21192;40.182;44.516;2023-04-03T12:19:36;19.60;51.80
34989;DHT22;21192;40.182;44.516;2023-04-03T12:22:08;19.30;52.60
34989;DHT22;21192;40.182;44.516;2023-04-03T12:24:37;19.00;53.60
34989;DHT22;21192;40.182;44.516;2023-04-03T12:30:12;18.90;54.60
34989;DHT22;21192;40.182;44.516;2023-04-03T12:33:20;18.90;54.90
34989;DHT22;21192;40.182;44.516;2023-04-03T12:35:54;18.90;54.90
34989;DHT22;21192;40.182;44.516;2023-04-03T12:46:42;19.30;54.40
34989;DHT22;21192;40.182;44.516;2023-04-03T12:49:39;19.40;54.20
34989;DHT22;21192;40.182;44.516;2023-04-03T12:52:33;19.40;54.30
34989;DHT22;21192;40.182;44.516;2023-04-03T12:55:02;19.40;53.80
34989;DHT22;21192;40.182;44.516;2023-04-03T12:57:30;19.50;53.10
34989;DHT22;21192;40.182;44.516;2023-04-03T12:59:58;19.50;52.90
34989;DHT22;21192;40.182;44.516;2023-04-03T13:02:32;19.40;53.40
34989;DHT22;21192;40.182;44.516;2023-04-03T13:05:09;19.30;54.00
34989;DHT22;21192;40.182;44.516;2023-04-03T13:07:40;19.20;54.30
34989;DHT22;21192;40.182;44.516;2023-04-03T13:12:45;18.90;53.70
34989;DHT22;21192;40.182;44.516;2023-04-03T13:15:18;18.90;53.70
34989;DHT22;21192;40.182;44.516;2023-04-03T13:17:45;18.90;53.80
34989;DHT22;21192;40.182;44.516;2023-04-03T13:20:32;18.80;53.80
34989;DHT22;21192;40.182;44.516;2023-04-03T13:23:07;18.70;54.00
34989;DHT22;21192;40.182;44.516;2023-04-03T13:25:37;18.70;54.20
34989;DHT22;21192;40.182;44.516;2023-04-03T13:28:07;18.70;54.00
34989;DHT22;21192;40.182;44.516;2023-04-03T13:30:36;18.80;53.80
34989;DHT22;21192;40.182;44.516;2023-04-03T13:33:05;18.80;53.40
34989;DHT22;21192;40.182;44.516;2023-04-03T13:35:38;18.80;53.10
34989;DHT22;21192;40.182;44.516;2023-04-03T13:40:50;18.90;53.00
34989;DHT22;21192;40.182;44.516;2023-04-03T13:43:25;18.90;52.80
34989;DHT22;21192;40.182;44.516;2023-04-03T13:45:59;18.90;52.70
34989;DHT22;21192;40.182;44.516;2023-04-03T13:48:25;18.80;52.70
34989;DHT22;21192;40.182;44.516;2023-04-03T13:51:02;18.90;52.70
34989;DHT22;21192;40.182;44.516;2023-04-03T13:53:31;18.90;52.50
34989;DHT22;21192;40.182;44.516;2023-04-03T13:58:30;18.80;52.80
34989;DHT22;21192;40.182;44.516;2023-04-03T14:01:25;18.70;53.70
34989;DHT22;21192;40.182;44.516;2023-04-03T14:03:54;18.70;54.90
34989;DHT22;21192;40.182;44.516;2023-04-03T14:06:21;18.60;55.10
34989;DHT22;21192;40.182;44.516;2023-04-03T14:08:48;18.60;55.50
34989;DHT22;21192;40.182;44.516;2023-04-03T14:11:34;18.50;55.90
34989;DHT22;21192;40.182;44.516;2023-04-03T14:14:13;18.40;56.70
34989;DHT22;21192;40.182;44.516;2023-04-03T14:16:43;18.40;57.10
34989;DHT22;21192;40.182;44.516;2023-04-03T14:19:19;18.30;57.50
34989;DHT22;21192;40.182;44.516;2023-04-03T14:21:46;18.30;57.70
34989;DHT22;21192;40.182;44.516;2023-04-03T14:24:12;18.20;57.70
34989;DHT22;21192;40.182;44.516;2023-04-03T14:26:38;18.20;57.90
34989;DHT22;21192;40.182;44.516;2023-04-03T14:29:04;18.10;58.00
34989;DHT22;21192;40.182;44.516;2023-04-03T14:31:30;18.20;58.10
34989;DHT22;21192;40.182;44.516;2023-04-03T14:33:56;18.20;58.20
34989;DHT22;21192;40.182;44.516;2023-04-03T14:36:24;18.20;58.50
34989;DHT22;21192;40.182;44.516;2023-04-03T14:38:51;18.10;58.80
34989;DHT22;21192;40.182;44.516;2023-04-03T14:41:20;18.10;58.90
34989;DHT22;21192;40.182;44.516;2023-04-03T14:43:47;17.90;59.10
34989;DHT22;21192;40.182;44.516;2023-04-03T14:46:19;17.90;59.00
34989;DHT22;21192;40.182;44.516;2023-04-03T14:48:47;17.80;59.00
34989;DHT22;21192;40.182;44.516;2023-04-03T14:51:14;17.70;59.20
34989;DHT22;21192;40.182;44.516;2023-04-03T14:53:42;17.60;59.70
34989;DHT22;21192;40.182;44.516;2023-04-03T14:56:25;17.50;60.30
34989;DHT22;21192;40.182;44.516;2023-04-03T14:58:56;17.50;60.90
34989;DHT22;21192;40.182;44.516;2023-04-03T15:01:23;17.40;61.30
34989;DHT22;21192;40.182;44.516;2023-04-03T15:03:49;17.40;61.50
34989;DHT22;21192;40.182;44.516;2023-04-03T15:06:15;17.30;61.50
34989;DHT22;21192;40.182;44.516;2023-04-03T15:08:42;17.30;61.70
34989;DHT22;21192;40.182;44.516;2023-04-03T15:11:13;17.30;62.00
34989;DHT22;21192;40.182;44.516;2023-04-03T15:13:40;17.20;62.40
34989;DHT22;21192;40.182;44.516;2023-04-03T15:16:16;17.20;62.80
34989;DHT22;21192;40.182;44.516;2023-04-03T15:18:44;17.10;63.20
34989;DHT22;21192;40.182;44.516;2023-04-03T15:21:10;17.00;63.70
34989;DHT22;21192;40.182;44.516;2023-04-03T15:23:36;16.90;63.90
34989;DHT22;21192;40.182;44.516;2023-04-03T15:26:02;17.00;63.90
34989;DHT22;21192;40.182;44.516;2023-04-03T15:28:35;17.00;63.90
34989;DHT22;21192;40.182;44.516;2023-04-03T15:31:02;16.90;64.20
34989;DHT22;21192;40.182;44.516;2023-04-03T15:33:29;16.90;64.50
34989;DHT22;21192;40.182;44.516;2023-04-03T15:35:55;16.90;64.70
34989;DHT22;21192;40.182;44.516;2023-04-03T15:38:21;16.80;65.00
34989;DHT22;21192;40.182;44.516;2023-04-03T15:40:47;16.80;65.50
34989;DHT22;21192;40.182;44.516;2023-04-03T15:43:13;16.80;66.00
34989;DHT22;21192;40.182;44.516;2023-04-03T15:45:40;16.70;66.30
34989;DHT22;21192;40.182;44.516;2023-04-03T15:48:06;16.70;66.60
34989;DHT22;21192;40.182;44.516;2023-04-03T15:50:34;16.70;66.70
34989;DHT22;21192;40.182;44.516;2023-04-03T15:53:00;16.60;66.90
34989;DHT22;21192;40.182;44.516;2023-04-03T15:55:28;16.60;66.90
34989;DHT22;21192;40.182;44.516;2023-04-03T15:57:55;16.60;66.90
34989;DHT22;21192;40.182;44.516;2023-04-03T16:00:22;16.50;67.20
34989;DHT22;21192;40.182;44.516;2023-04-03T16:02:52;16.40;68.40
34989;DHT22;21192;40.182;44.516;2023-04-03T16:05:18;16.30;69.10
34989;DHT22;21192;40.182;44.516;2023-04-03T16:07:45;16.30;69.10
34989;DHT22;21192;40.182;44.516;2023-04-03T16:10:13;16.20;70.30
34989;DHT22;21192;40.182;44.516;2023-04-03T16:12:39;16.20;70.60
34989;DHT22;21192;40.182;44.516;2023-04-03T16:15:06;16.20;71.00
34989;DHT22;21192;40.182;44.516;2023-04-03T16:17:34;16.20;71.70
34989;DHT22;21192;40.182;44.516;2023-04-03T16:20:00;16.10;72.40
34989;DHT22;21192;40.182;44.516;2023-04-03T16:22:27;16.10;72.80
34989;DHT22;21192;40.182;44.516;2023-04-03T16:24:54;16.00;73.60
34989;DHT22;21192;40.182;44.516;2023-04-03T16:27:21;16.00;74.20
34989;DHT22;21192;40.182;44.516;2023-04-03T16:29:47;16.00;74.80
34989;DHT22;21192;40.182;44.516;2023-04-03T16:32:13;15.90;75.50
34989;DHT22;21192;40.182;44.516;2023-04-03T16:34:39;15.80;76.30
34989;DHT22;21192;40.182;44.516;2023-04-03T16:37:06;15.80;76.80
34989;DHT22;21192;40.182;44.516;2023-04-03T16:39:35;15.70;77.20
34989;DHT22;21192;40.182;44.516;2023-04-03T16:42:01;15.70;77.80
34989;DHT22;21192;40.182;44.516;2023-04-03T16:44:27;15.70;78.00
34989;DHT22;21192;40.182;44.516;2023-04-03T16:46:52;15.60;78.50
34989;DHT22;21192;40.182;44.516;2023-04-03T16:49:18;15.50;78.80
34989;DHT22;21192;40.182;44.516;2023-04-03T16:51:44;15.50;79.00
34989;DHT22;21192;40.182;44.516;2023-04-03T16:54:11;15.50;79.00
34989;DHT22;21192;40.182;44.516;2023-04-03T16:56:39;15.50;78.80
34989;DHT22;21192;40.182;44.516;2023-04-03T16:59:05;15.60;78.80
34989;DHT22;21192;40.182;44.516;2023-04-03T17:01:31;15.60;78.80
34989;DHT22;21192;40.182;44.516;2023-04-03T17:03:57;15.60;79.00
34989;DHT22;21192;40.182;44.516;2023-04-03T17:06:23;15.50;79.30
34989;DHT22;21192;40.182;44.516;2023-04-03T17:08:50;15.50;79.70